Time;durP1;ratioP1;P1;durP2;ratioP2;P2;SDS_P1;SDS_P2;PMS_P1;PMS_P2;Temp;Humidity;BMP_temperature;BMP_pressure;BME280_temperature;BME280_humidity;BME280_pressure;Samples;Min_cycle;Max_cycle;Signal;HPM_P1;HPM_P2
2022/01/02 00:02:28;;;;;;;4.38;3.53;;;;;;;10.97;48.07;96016.66;5018494;28;20531;-70
2022/01/02 00:05:19;;;;;;;4.97;4.07;;;;;;;10.55;48.49;95965.00;5010246;28;20480;-69
2022/01/02 00:08:02;;;;;;;5.22;3.63;;;;;;;10.80;48.26;96011.78;5010467;28;20380;-69
2022/01/02 00:10:31;;;;;;;5.43;3.60;;;;;;;10.90;48.10;96041.78;5009948;28;20037;-68
2022/01/02 00:12:59;;;;;;;5.50;3.65;;;;;;;10.44;48.90;95974.94;4994638;28;20388;-68
2022/01/02 00:15:26;;;;;;;4.47;3.50;;;;;;;10.44;48.29;95960.84;5027531;28;20025;-68
2022/01/02 00:18:11;;;;;;;6.00;3.67;;;;;;;10.68;48.00;96006.88;5010701;28;20476;-69
2022/01/02 00:20:46;;;;;;;4.40;3.78;;;;;;;10.73;48.18;96016.66;5009769;28;20033;-68
2022/01/02 00:23:17;;;;;;;5.28;4.20;;;;;;;10.84;48.03;96026.91;5009970;28;20048;-68
2022/01/02 00:25:43;;;;;;;4.32;3.88;;;;;;;10.82;48.48;96021.09;5010516;28;20109;-69
2022/01/02 00:28:11;;;;;;;4.28;3.78;;;;;;;10.75;48.37;96014.50;5013305;28;20658;-68
2022/01/02 00:30:37;;;;;;;5.55;4.28;;;;;;;10.67;48.50;96010.59;5021001;28;20399;-68
2022/01/02 00:33:03;;;;;;;5.63;4.30;;;;;;;10.37;49.20;95945.22;5029880;28;20026;-68
2022/01/02 00:35:30;;;;;;;4.47;3.65;;;;;;;10.21;48.38;95931.25;5029674;28;20399;-68
2022/01/02 00:37:56;;;;;;;5.22;3.95;;;;;;;10.74;48.11;96013.72;5029424;28;20029;-68
2022/01/02 00:40:22;;;;;;;6.30;3.78;;;;;;;10.47;48.94;95968.25;5029273;28;20491;-68
2022/01/02 00:42:55;;;;;;;5.57;4.47;;;;;;;10.65;48.82;96010.91;5022758;28;20061;-68
2022/01/02 00:45:24;;;;;;;5.65;4.20;;;;;;;10.66;48.76;96003.72;5010475;28;20030;-69
2022/01/02 00:48:05;;;;;;;6.63;4.68;;;;;;;10.62;48.70;96002.69;5011905;28;20521;-68
2022/01/02 00:50:37;;;;;;;6.03;4.60;;;;;;;10.56;48.69;96009.13;5029620;28;20030;-70
2022/01/02 00:53:05;;;;;;;;;;;;;;;10.56;49.65;96001.94;5030148;28;20553;-67
2022/01/02 00:55:34;;;;;;;3.95;3.28;;;;;;;10.53;49.20;95999.84;5029296;28;19924;-68
2022/01/02 00:58:01;;;;;;;4.13;3.28;;;;;;;10.39;49.28;95996.28;5022044;28;20036;-68
2022/01/02 01:00:28;;;;;;;2.85;2.55;;;;;;;10.36;49.29;95973.69;5026501;28;20502;-68
2022/01/02 01:02:56;;;;;;;2.90;2.50;;;;;;;10.55;48.84;96000.38;5020904;28;20038;-70
2022/01/02 01:05:35;;;;;;;5.32;2.88;;;;;;;10.28;49.05;95955.69;5029474;28;20030;-68
2022/01/02 01:08:04;;;;;;;3.65;2.80;;;;;;;10.39;48.73;95982.97;5029153;28;20100;-67
2022/01/02 01:10:32;;;;;;;4.75;2.38;;;;;;;10.45;48.81;95989.03;5028917;28;20491;-68
2022/01/02 01:13:01;;;;;;;2.72;2.13;;;;;;;10.32;48.53;95979.84;5022750;28;20658;-67
2022/01/02 01:15:28;;;;;;;3.92;2.53;;;;;;;10.58;48.09;95999.78;5026513;28;20037;-68
2022/01/02 01:17:56;;;;;;;3.25;2.30;;;;;;;10.53;48.58;95991.06;5020965;28;20033;-67
2022/01/02 01:20:26;;;;;;;3.13;2.33;;;;;;;10.42;48.21;95990.38;5010984;28;20560;-68
2022/01/02 01:22:51;;;;;;;2.50;2.10;;;;;;;10.48;48.19;96009.75;5029152;28;20026;-69
2022/01/02 01:25:19;;;;;;;2.42;1.60;;;;;;;10.43;47.77;96002.59;5029143;28;20087;-70
2022/01/02 01:27:45;;;;;;;2.10;1.75;;;;;;;10.54;47.50;96011.25;5023080;28;20101;-69
2022/01/02 01:30:13;;;;;;;2.92;2.00;;;;;;;10.59;47.21;96005.91;5029705;28;20036;-67
2022/01/02 01:32:38;;;;;;;2.58;2.10;;;;;;;10.40;47.18;95969.41;5017464;28;20034;-69
2022/01/02 01:35:05;;;;;;;2.40;2.00;;;;;;;10.77;47.22;96012.38;5014295;28;20134;-69
2022/01/02 01:37:32;;;;;;;4.18;2.58;;;;;;;10.40;46.86;95961.41;5014167;28;20084;-67
2022/01/02 01:39:58;;;;;;;2.53;2.30;;;;;;;10.73;47.33;95998.81;5013506;28;20029;-68
2022/01/02 01:42:36;;;;;;;3.33;2.28;;;;;;;10.78;47.45;96012.06;5013705;28;20034;-68
2022/01/02 01:45:28;;;;;;;2.38;2.17;;;;;;;10.81;47.42;96003.53;5030655;28;20053;-67
2022/01/02 01:47:57;;;;;;;2.72;2.22;;;;;;;10.71;46.64;95994.88;5024604;28;20065;-67
2022/01/02 01:50:29;;;;;;;3.05;1.92;;;;;;;10.82;46.81;96007.78;5032335;28;20487;-68
2022/01/02 01:52:55;;;;;;;1.92;1.67;;;;;;;10.36;46.50;95919.72;5015183;28;20037;-67
2022/01/02 01:55:21;;;;;;;2.75;2.35;;;;;;;10.45;46.99;95927.88;5015222;28;20025;-69
2022/01/02 01:57:47;;;;;;;2.83;1.77;;;;;;;10.34;46.58;95913.91;5027660;28;20025;-69
2022/01/02 02:00:16;;;;;;;2.88;2.53;;;;;;;10.38;46.38;95902.38;5029481;28;20029;-70
2022/01/02 02:02:42;;;;;;;3.00;2.17;;;;;;;10.98;45.52;95980.97;5016711;28;20468;-70
2022/01/02 02:05:08;;;;;;;2.33;1.83;;;;;;;10.87;45.74;95953.69;5013497;28;20038;-70
2022/01/02 02:07:41;;;;;;;2.10;1.80;;;;;;;11.02;45.87;95977.47;4995900;28;20036;-70
2022/01/02 02:10:26;;;;;;;3.83;2.78;;;;;;;11.06;45.40;95967.03;5012677;28;20034;-69
2022/01/02 02:12:54;;;;;;;2.38;1.92;;;;;;;11.09;45.52;95961.13;4996988;28;20030;-68
2022/01/02 02:15:21;;;;;;;3.13;2.10;;;;;;;11.01;45.87;95937.81;5023414;28;20100;-68
2022/01/02 02:17:49;;;;;;;2.05;1.73;;;;;;;11.18;45.71;95957.53;4997373;28;20715;-69
2022/01/02 02:20:23;;;;;;;2.15;1.92;;;;;;;10.96;45.28;95925.38;5011862;28;20025;-68
2022/01/02 02:22:52;;;;;;;2.33;2.13;;;;;;;11.18;45.95;95952.22;4994728;28;20061;-70
2022/01/02 02:25:21;;;;;;;1.98;1.77;;;;;;;10.78;45.29;95902.97;5012205;28;20109;-70
2022/01/02 02:27:52;;;;;;;1.92;1.70;;;;;;;10.85;45.51;95902.59;4995026;28;20029;-70
2022/01/02 02:30:18;;;;;;;1.80;1.60;;;;;;;10.92;44.87;95922.47;5028640;28;20021;-70
2022/01/02 02:32:44;;;;;;;1.73;1.50;;;;;;;11.22;44.74;95965.75;5005062;28;20026;-70
2022/01/02 02:35:12;;;;;;;3.08;1.83;;;;;;;10.97;45.50;95918.97;5012206;28;20049;-68
2022/01/02 02:37:43;;;;;;;3.00;1.85;;;;;;;11.14;45.42;95939.75;5011680;28;20029;-67
2022/01/02 02:40:10;;;;;;;2.55;1.60;;;;;;;10.76;44.64;95888.38;4992852;28;20026;-70
2022/01/02 02:42:47;;;;;;;3.28;2.00;;;;;;;10.59;45.10;95871.00;5011379;28;20030;-67
2022/01/02 02:51:05;;;;;;;1.50;1.40;;;;;;;10.89;44.98;95924.91;5031255;28;20169;-70
2022/01/02 02:53:31;;;;;;;1.73;1.48;;;;;;;10.92;44.39;95924.34;5013750;28;20124;-68
2022/01/02 02:55:58;;;;;;;2.08;1.42;;;;;;;10.92;45.27;95933.13;5031556;28;20566;-70
2022/01/02 03:01:00;;;;;;;1.75;1.42;;;;;;;10.92;44.08;95903.84;5026900;28;20440;-67
2022/01/02 03:03:25;;;;;;;1.60;1.50;;;;;;;10.87;44.54;95895.94;5011550;28;20374;-70
2022/01/02 03:05:51;;;;;;;1.40;1.30;;;;;;;10.85;44.56;95891.97;5011784;28;20472;-70
2022/01/02 03:08:17;;;;;;;1.52;1.20;;;;;;;10.88;44.54;95900.19;5011796;28;20580;-69
2022/01/02 03:10:42;;;;;;;1.63;1.23;;;;;;;10.75;44.73;95890.25;5011934;28;20022;-67
2022/01/02 03:13:08;;;;;;;1.67;1.50;;;;;;;10.79;44.42;95901.88;5015376;28;20034;-70
2022/01/02 03:15:33;;;;;;;1.95;1.30;;;;;;;10.74;44.52;95890.53;5029928;28;20053;-69
2022/01/02 03:17:58;;;;;;;1.30;1.20;;;;;;;10.65;43.95;95871.75;5011925;28;20423;-70
2022/01/02 03:20:24;;;;;;;2.22;1.67;;;;;;;10.69;44.66;95878.06;5010480;28;20022;-70
2022/01/02 03:22:49;;;;;;;1.52;1.35;;;;;;;10.76;44.77;95883.84;5011309;28;20050;-67
2022/01/02 03:25:15;;;;;;;1.52;1.15;;;;;;;10.68;44.82;95871.97;4993680;28;20026;-70
2022/01/02 03:27:41;;;;;;;1.67;1.38;;;;;;;10.84;44.48;95885.84;5011056;28;20487;-69
2022/01/02 03:30:08;;;;;;;1.35;1.10;;;;;;;10.36;44.12;95823.97;5027628;28;20025;-69
2022/01/02 03:32:33;;;;;;;1.35;1.25;;;;;;;10.24;43.79;95787.16;5022026;28;20085;-68
2022/01/02 03:34:59;;;;;;;1.80;1.17;;;;;;;10.30;44.51;95817.16;5030294;28;20050;-68
2022/01/02 03:37:28;;;;;;;1.30;1.08;;;;;;;10.77;44.59;95895.28;5030894;28;20030;-68
2022/01/02 03:39:54;;;;;;;2.45;1.45;;;;;;;10.46;44.34;95839.00;5030215;28;20052;-68
2022/01/02 03:42:20;;;;;;;1.58;1.08;;;;;;;10.70;44.42;95878.84;5030758;28;20025;-68
2022/01/02 03:44:45;;;;;;;1.55;1.13;;;;;;;10.48;44.45;95848.28;5028181;28;20040;-70
2022/01/02 03:47:11;;;;;;;2.70;1.50;;;;;;;10.47;44.14;95854.69;5024879;28;20041;-67
2022/01/02 03:49:36;;;;;;;1.67;1.30;;;;;;;10.41;44.60;95851.28;5026285;28;20065;-68
2022/01/02 03:52:03;;;;;;;1.40;1.30;;;;;;;10.49;44.43;95852.50;5030436;28;20060;-67
2022/01/02 03:54:28;;;;;;;1.52;1.23;;;;;;;10.54;44.63;95863.09;5030476;28;20029;-68
2022/01/02 03:56:54;;;;;;;1.40;1.20;;;;;;;10.45;44.66;95848.88;5029630;28;20468;-67
2022/01/02 03:59:20;;;;;;;1.80;1.20;;;;;;;10.38;44.18;95849.19;5020565;28;20072;-68
2022/01/02 04:01:45;;;;;;;1.20;1.10;;;;;;;10.22;44.49;95815.06;5026829;28;20026;-68
2022/01/02 04:04:10;;;;;;;1.40;1.25;;;;;;;10.32;44.58;95839.69;5005498;28;20041;-68
2022/01/02 04:06:36;;;;;;;1.38;1.23;;;;;;;10.38;44.10;95851.84;5012598;28;20031;-68
2022/01/02 04:09:03;;;;;;;1.50;1.40;;;;;;;10.35;44.45;95844.47;5029821;28;20032;-70
2022/01/02 04:11:29;;;;;;;1.35;1.17;;;;;;;10.19;45.15;95836.94;5029959;28;20045;-69
2022/01/02 04:13:54;;;;;;;1.30;1.15;;;;;;;10.20;45.35;95865.88;5021999;28;20729;-69
2022/01/02 04:16:19;;;;;;;1.25;1.15;;;;;;;9.83;44.87;95779.66;5027378;28;20026;-70
2022/01/02 04:18:45;;;;;;;2.03;1.42;;;;;;;10.03;44.75;95829.13;5021114;28;20052;-67
2022/01/02 04:21:10;;;;;;;1.25;1.05;;;;;;;9.53;45.40;95767.50;5029621;28;20476;-68
2022/01/02 04:23:37;;;;;;;1.23;1.13;;;;;;;9.61;44.81;95768.72;5012152;28;20087;-68
2022/01/02 04:26:03;;;;;;;2.55;1.40;;;;;;;10.03;45.19;95836.28;5029864;28;20434;-69
2022/01/02 04:28:29;;;;;;;1.20;1.10;;;;;;;9.80;44.94;95798.81;5023436;28;20033;-68
2022/01/02 04:30:54;;;;;;;1.40;1.30;;;;;;;9.62;45.25;95770.28;5025827;28;20029;-68
2022/01/02 04:33:20;;;;;;;3.25;1.52;;;;;;;9.71;45.47;95819.09;5021578;28;20101;-67
2022/01/02 04:35:45;;;;;;;1.80;1.50;;;;;;;9.69;45.52;95847.81;5029772;28;20394;-67
2022/01/02 04:38:10;;;;;;;2.05;1.52;;;;;;;9.40;46.25;95825.75;5011594;28;20029;-68
2022/01/02 04:40:36;;;;;;;1.40;1.20;;;;;;;9.43;46.52;95822.56;5029280;28;20025;-67
2022/01/02 04:43:01;;;;;;;2.28;1.33;;;;;;;9.30;46.87;95822.13;5009751;28;20129;-67
2022/01/02 04:45:27;;;;;;;1.52;1.42;;;;;;;8.92;46.48;95762.72;5024589;28;20029;-68
2022/01/02 04:47:52;;;;;;;1.20;1.10;;;;;;;9.87;46.13;95836.44;5001990;28;20026;-69
2022/01/02 04:50:17;;;;;;;1.50;1.40;;;;;;;9.91;46.22;95820.75;5029037;28;20083;-67
2022/01/02 04:52:43;;;;;;;1.60;1.45;;;;;;;9.85;45.93;95806.72;5029084;28;20033;-68
2022/01/02 04:55:08;;;;;;;1.42;1.30;;;;;;;9.53;45.82;95748.91;5029518;28;20021;-67
2022/01/02 04:57:34;;;;;;;1.33;1.23;;;;;;;9.88;44.95;95794.75;5029461;28;20025;-68
2022/01/02 04:59:59;;;;;;;3.13;1.30;;;;;;;9.67;45.41;95758.81;5018228;28;20095;-68
2022/01/02 05:02:25;;;;;;;3.15;1.70;;;;;;;9.85;45.47;95784.69;5017627;28;20474;-67
2022/01/02 05:04:50;;;;;;;2.58;1.60;;;;;;;9.50;45.67;95732.72;5013265;28;20057;-67
2022/01/02 05:07:18;;;;;;;2.10;1.33;;;;;;;10.01;46.00;95822.50;5033279;28;20018;-68
2022/01/02 05:09:43;;;;;;;1.83;1.60;;;;;;;9.90;45.38;95800.56;5032739;28;20018;-67
2022/01/02 05:12:09;;;;;;;1.95;1.60;;;;;;;9.86;45.71;95805.63;5033356;28;20056;-67
2022/01/02 05:14:34;;;;;;;2.50;2.10;;;;;;;9.88;46.09;95811.47;5026636;28;20055;-68
2022/01/02 05:17:00;;;;;;;3.20;2.20;;;;;;;9.79;45.78;95785.81;5028566;28;20022;-68
2022/01/02 05:19:25;;;;;;;2.35;1.40;;;;;;;9.33;45.49;95714.59;5027567;28;20105;-68
2022/01/02 05:21:51;;;;;;;1.95;1.58;;;;;;;9.45;45.72;95732.78;5033726;28;20040;-68
2022/01/02 05:24:16;;;;;;;1.52;1.42;;;;;;;9.31;45.83;95722.81;5016433;28;20022;-68
2022/01/02 05:26:41;;;;;;;2.22;1.40;;;;;;;9.59;46.17;95770.88;5015781;28;20069;-68
2022/01/02 05:29:07;;;;;;;2.08;1.88;;;;;;;9.13;46.19;95689.03;5028030;28;20029;-70
2022/01/02 05:31:32;;;;;;;1.27;1.17;;;;;;;9.70;45.91;95782.19;5030418;28;20414;-68
2022/01/02 05:33:58;;;;;;;1.30;1.20;;;;;;;9.16;45.96;95695.63;5007382;28;20044;-67
2022/01/02 05:36:24;;;;;;;2.65;1.42;;;;;;;9.31;46.29;95728.13;5032721;28;20067;-68
2022/01/02 05:38:50;;;;;;;1.20;1.10;;;;;;;9.11;46.55;95688.53;5032594;28;20183;-67
2022/01/02 05:41:16;;;;;;;1.40;1.30;;;;;;;9.77;46.07;95793.25;5032360;28;20570;-67
2022/01/02 05:43:41;;;;;;;1.52;1.23;;;;;;;9.46;45.62;95737.78;5027963;28;20028;-68
2022/01/02 05:46:06;;;;;;;2.10;1.33;;;;;;;9.46;45.92;95743.09;5031282;28;20021;-70
2022/01/02 05:48:33;;;;;;;1.38;1.27;;;;;;;9.82;45.40;95796.66;5024306;28;20037;-69
2022/01/02 05:51:00;;;;;;;1.63;1.23;;;;;;;9.69;45.92;95765.47;5032125;28;20053;-71
2022/01/02 05:53:26;;;;;;;1.20;1.10;;;;;;;9.71;46.06;95759.84;5014993;28;20026;-67
2022/01/02 05:55:51;;;;;;;1.75;1.55;;;;;;;9.77;45.36;95785.28;5032740;28;20041;-67
2022/01/02 05:58:17;;;;;;;1.40;1.30;;;;;;;9.30;45.61;95712.47;5013346;28;20136;-68
2022/01/02 06:00:42;;;;;;;1.20;1.10;;;;;;;9.57;45.43;95757.88;5026983;28;20025;-67
2022/01/02 06:03:08;;;;;;;1.30;1.20;;;;;;;9.74;45.66;95757.44;5024382;28;20497;-67
2022/01/02 06:05:33;;;;;;;1.40;1.30;;;;;;;9.71;45.75;95744.69;5014805;28;20056;-70
2022/01/02 06:07:59;;;;;;;1.52;1.20;;;;;;;9.37;44.98;95695.16;5032472;28;20021;-68
2022/01/02 06:10:24;;;;;;;1.40;1.30;;;;;;;9.84;45.16;95765.28;5031722;28;20028;-68
2022/01/02 06:12:50;;;;;;;1.48;1.35;;;;;;;9.85;45.78;95756.22;5032611;28;20033;-68
2022/01/02 06:15:15;;;;;;;1.48;1.33;;;;;;;9.94;44.83;95766.25;5019474;28;20029;-68
2022/01/02 06:17:41;;;;;;;1.85;1.48;;;;;;;9.69;45.27;95720.28;5023933;28;20034;-68
2022/01/02 06:20:06;;;;;;;2.35;1.30;;;;;;;9.58;45.37;95713.53;5012603;28;20034;-68
2022/01/02 06:22:32;;;;;;;1.55;1.20;;;;;;;10.04;45.21;95760.81;5013239;28;20053;-72
2022/01/02 06:24:57;;;;;;;2.05;1.27;;;;;;;10.06;45.03;95761.31;5012831;28;20022;-68
2022/01/02 06:27:23;;;;;;;1.27;1.10;;;;;;;9.62;44.98;95687.97;5012311;28;20022;-68
2022/01/02 06:29:48;;;;;;;3.30;1.40;;;;;;;9.51;44.51;95684.63;5019403;28;20502;-68
2022/01/02 06:32:14;;;;;;;1.83;1.05;;;;;;;9.60;44.16;95674.97;5025566;28;20049;-68
2022/01/02 06:34:39;;;;;;;2.17;1.75;;;;;;;9.83;43.71;95718.53;5028635;28;20114;-68
2022/01/02 06:37:04;;;;;;;1.38;1.27;;;;;;;10.01;44.01;95767.47;5031623;28;20022;-69
2022/01/02 06:39:30;;;;;;;1.80;1.55;;;;;;;9.79;44.61;95717.53;5031043;28;20033;-68
2022/01/02 06:41:55;;;;;;;2.75;1.70;;;;;;;10.05;43.96;95749.09;5031758;28;20480;-68
2022/01/02 06:44:21;;;;;;;1.40;1.30;;;;;;;9.57;43.78;95690.66;5030369;28;20029;-68
2022/01/02 06:46:46;;;;;;;1.80;1.30;;;;;;;9.96;43.62;95732.97;5029319;28;20055;-68
2022/01/02 06:49:11;;;;;;;2.08;1.52;;;;;;;9.58;43.58;95692.28;5018152;28;20029;-69
2022/01/02 06:51:37;;;;;;;1.83;1.40;;;;;;;9.85;43.72;95747.47;5011878;28;20123;-68
2022/01/02 06:54:03;;;;;;;1.98;1.30;;;;;;;9.87;43.19;95718.75;5011644;28;20025;-69
2022/01/02 06:56:28;;;;;;;1.83;1.35;;;;;;;10.16;43.01;95755.84;5011667;28;20022;-68
2022/01/02 06:58:54;;;;;;;2.63;1.90;;;;;;;10.13;43.01;95727.19;5012850;28;20026;-68
2022/01/02 07:01:19;;;;;;;2.58;1.92;;;;;;;10.39;42.53;95757.72;5029102;28;20467;-68
2022/01/02 07:03:44;;;;;;;3.95;1.60;;;;;;;10.35;42.51;95740.75;5023819;28;20030;-68
2022/01/02 07:06:10;;;;;;;1.80;1.60;;;;;;;10.36;42.30;95739.66;5031958;28;20572;-68
2022/01/02 07:08:36;;;;;;;2.38;1.70;;;;;;;10.57;42.44;95758.78;5032026;28;20022;-68
2022/01/02 07:11:01;;;;;;;3.13;2.33;;;;;;;10.63;42.64;95754.19;5031645;28;20029;-68
2022/01/02 07:13:27;;;;;;;3.35;1.90;;;;;;;10.76;42.93;95765.97;5032046;28;20060;-68
2022/01/02 07:15:52;;;;;;;1.30;1.08;;;;;;;10.72;42.02;95747.13;5011826;28;20037;-67
2022/01/02 07:18:18;;;;;;;1.48;1.25;;;;;;;10.81;41.66;95748.06;5025175;28;20037;-68
2022/01/02 07:20:43;;;;;;;1.85;1.40;;;;;;;10.76;41.36;95731.38;4996462;28;20061;-68
2022/01/02 07:23:09;;;;;;;1.52;1.42;;;;;;;10.96;41.89;95743.59;4993999;28;20029;-68
2022/01/02 07:25:34;;;;;;;1.02;0.93;;;;;;;10.89;41.53;95730.63;5011306;28;20028;-68
2022/01/02 07:28:00;;;;;;;1.65;1.13;;;;;;;11.03;41.55;95744.00;5010888;28;20021;-70
2022/01/02 07:30:25;;;;;;;0.95;0.88;;;;;;;10.79;41.24;95706.84;5016393;28;20048;-69
2022/01/02 07:32:51;;;;;;;1.52;0.90;;;;;;;11.02;41.39;95731.75;5009116;28;20025;-68
2022/01/02 07:35:16;;;;;;;1.90;0.70;;;;;;;11.09;41.47;95738.28;5024560;28;20026;-69
2022/01/02 07:37:42;;;;;;;1.33;1.00;;;;;;;11.22;41.08;95754.59;5030686;28;20374;-70
2022/01/02 07:40:08;;;;;;;1.70;0.93;;;;;;;10.78;41.36;95690.09;5030248;28;20032;-69
2022/01/02 07:42:33;;;;;;;1.55;1.00;;;;;;;10.81;41.66;95676.22;5031302;28;20022;-69
2022/01/02 07:44:59;;;;;;;0.90;0.70;;;;;;;10.89;40.98;95670.19;5019885;28;20025;-70
2022/01/02 07:47:25;;;;;;;1.42;1.33;;;;;;;11.08;41.29;95683.47;5023999;28;20025;-69
2022/01/02 07:49:50;;;;;;;1.52;1.10;;;;;;;11.50;41.23;95726.13;5004090;28;20025;-70
2022/01/02 07:52:15;;;;;;;2.33;1.10;;;;;;;11.70;40.39;95726.53;5012562;28;20037;-69
2022/01/02 07:54:41;;;;;;;1.20;1.10;;;;;;;11.87;40.46;95733.94;5013245;28;20017;-69
2022/01/02 07:57:06;;;;;;;1.67;1.20;;;;;;;11.97;40.30;95725.75;5030973;28;20460;-68
2022/01/02 07:59:32;;;;;;;2.00;1.48;;;;;;;11.94;40.08;95699.69;5022774;28;20631;-70
2022/01/02 08:01:58;;;;;;;1.67;1.38;;;;;;;11.76;39.58;95670.47;5018445;28;20667;-69
2022/01/02 08:04:23;;;;;;;2.72;1.20;;;;;;;12.28;39.78;95718.97;5018273;28;20042;-68
2022/01/02 08:06:49;;;;;;;1.50;1.00;;;;;;;12.23;39.18;95703.88;5010207;28;20025;-68
2022/01/02 08:09:14;;;;;;;1.10;1.00;;;;;;;12.40;38.54;95708.59;4992230;28;20040;-68
2022/01/02 08:11:40;;;;;;;1.50;0.98;;;;;;;12.58;38.81;95714.84;4992771;28;20116;-68
2022/01/02 08:14:06;;;;;;;1.50;1.35;;;;;;;12.53;38.68;95696.28;5010333;28;20052;-68
2022/01/02 08:16:33;;;;;;;1.50;1.08;;;;;;;12.48;38.30;95684.63;5024073;28;20029;-70
2022/01/02 08:18:59;;;;;;;1.48;1.00;;;;;;;12.62;38.19;95692.59;5002894;28;20025;-68
2022/01/02 08:21:25;;;;;;;1.02;0.90;;;;;;;12.37;38.21;95653.94;5030285;28;20721;-68
2022/01/02 08:23:50;;;;;;;1.38;1.20;;;;;;;12.37;38.13;95635.28;5029892;28;20380;-69
2022/01/02 08:26:15;;;;;;;1.25;1.02;;;;;;;12.95;38.02;95706.50;5012348;28;20033;-70
2022/01/02 08:28:41;;;;;;;1.95;1.48;;;;;;;13.12;37.75;95718.38;5029472;28;20025;-69
2022/01/02 08:31:06;;;;;;;2.58;1.10;;;;;;;13.18;37.57;95709.13;5021670;28;20029;-68
2022/01/02 08:33:32;;;;;;;1.40;1.05;;;;;;;12.90;37.46;95668.47;5020809;28;20029;-73
2022/01/02 08:35:57;;;;;;;1.35;1.25;;;;;;;13.22;37.30;95699.44;5011057;28;20025;-70
2022/01/02 08:38:23;;;;;;;2.58;1.30;;;;;;;13.39;36.94;95714.78;5010533;28;20030;-70
2022/01/02 08:40:48;;;;;;;2.28;1.15;;;;;;;13.21;37.04;95665.78;5029240;28;20048;-70
2022/01/02 08:43:14;;;;;;;3.22;1.40;;;;;;;13.58;37.11;95704.63;5029388;28;20040;-72
2022/01/02 08:45:39;;;;;;;2.53;1.40;;;;;;;13.46;36.98;95665.16;5023225;28;20105;-72
2022/01/02 08:48:05;;;;;;;2.55;1.13;;;;;;;13.67;36.47;95673.38;5028182;28;20045;-70
2022/01/02 08:50:32;;;;;;;2.10;1.40;;;;;;;14.09;36.00;95702.44;4996399;28;20109;-72
2022/01/02 08:52:57;;;;;;;2.50;1.00;;;;;;;13.83;35.64;95641.66;5009704;28;20030;-69
2022/01/02 08:55:29;;;;;;;1.33;1.13;;;;;;;14.26;35.69;95678.38;5009762;28;20041;-70
2022/01/02 08:57:55;;;;;;;;;;;;;;;14.55;35.20;95708.00;5010631;28;20025;-70
2022/01/02 09:00:23;;;;;;;2.33;1.35;;;;;;;14.55;35.12;95683.13;5014534;28;19925;-70
2022/01/02 09:02:48;;;;;;;1.35;1.13;;;;;;;14.67;35.09;95690.53;5018856;28;20026;-70
2022/01/02 09:05:14;;;;;;;1.52;1.40;;;;;;;14.52;35.19;95659.66;4998711;28;20046;-71
2022/01/02 09:07:40;;;;;;;2.40;1.35;;;;;;;14.70;35.05;95688.00;5009930;28;20101;-70
2022/01/02 09:10:06;;;;;;;1.00;0.90;;;;;;;14.45;34.99;95662.78;5009060;28;20511;-72
2022/01/02 09:12:31;;;;;;;1.55;1.05;;;;;;;14.29;35.12;95640.28;5009717;28;20439;-70
2022/01/02 09:14:56;;;;;;;1.20;1.10;;;;;;;13.99;35.07;95608.00;4991306;28;20053;-70
2022/01/02 09:17:22;;;;;;;1.65;0.90;;;;;;;14.44;35.56;95687.19;5016559;28;20449;-70
2022/01/02 09:19:49;;;;;;;2.05;0.90;;;;;;;14.26;35.25;95667.66;5017021;28;20030;-70
2022/01/02 09:22:14;;;;;;;1.58;1.15;;;;;;;14.14;35.39;95646.09;5009490;28;20033;-69
2022/01/02 09:24:40;;;;;;;1.77;1.30;;;;;;;14.22;35.35;95672.06;5009539;28;20022;-69
2022/01/02 09:27:06;;;;;;;1.17;1.08;;;;;;;14.09;35.78;95640.91;5009275;28;20443;-71
2022/01/02 09:29:31;;;;;;;4.38;1.38;;;;;;;14.02;35.51;95625.31;5008353;28;20026;-71
2022/01/02 09:31:57;;;;;;;1.65;1.35;;;;;;;14.27;35.52;95658.53;5007789;28;20365;-69
2022/01/02 09:34:22;;;;;;;1.58;1.23;;;;;;;14.24;35.64;95651.16;5020867;28;20084;-68
2022/01/02 09:36:48;;;;;;;1.88;1.13;;;;;;;14.33;35.48;95649.25;5011511;28;20104;-69
2022/01/02 09:39:13;;;;;;;0.88;0.88;;;;;;;14.54;35.29;95681.56;5028561;28;20025;-68
2022/01/02 09:41:40;;;;;;;1.27;0.90;;;;;;;14.65;35.01;95687.38;5029161;28;20518;-68
2022/01/02 09:44:05;;;;;;;5.55;1.00;;;;;;;14.68;34.99;95692.88;5029149;28;20490;-69
2022/01/02 09:46:32;;;;;;;1.10;1.00;;;;;;;14.38;34.65;95648.28;5023546;28;20105;-68
2022/01/02 09:48:57;;;;;;;1.77;0.80;;;;;;;14.85;34.33;95680.59;5016765;28;20038;-67
2022/01/02 09:51:25;;;;;;;1.20;0.70;;;;;;;15.01;34.23;95679.78;5012521;28;20030;-69
2022/01/02 09:53:51;;;;;;;1.10;0.90;;;;;;;15.05;34.01;95679.94;5012755;28;20026;-68
2022/01/02 09:56:17;;;;;;;2.22;0.80;;;;;;;14.89;33.40;95626.06;5012652;28;20495;-71
2022/01/02 09:58:44;;;;;;;0.88;0.50;;;;;;;15.11;33.30;95641.13;5013153;28;20030;-70
2022/01/02 10:01:20;;;;;;;3.30;0.80;;;;;;;15.46;32.84;95647.16;5024570;28;20438;-68
2022/01/02 10:03:54;;;;;;;2.08;1.10;;;;;;;15.71;32.48;95650.84;5003994;28;20391;-70
2022/01/02 10:06:21;;;;;;;1.17;0.80;;;;;;;16.07;32.27;95679.84;5012678;28;20029;-68
2022/01/02 10:08:47;;;;;;;3.35;0.63;;;;;;;15.90;31.46;95628.97;5012434;28;20030;-69
2022/01/02 10:11:24;;;;;;;1.33;0.70;;;;;;;16.30;31.48;95641.94;5012093;28;20022;-67
2022/01/02 10:13:53;;;;;;;1.75;1.00;;;;;;;16.71;31.00;95661.81;5012553;28;20118;-66
2022/01/02 10:16:26;;;;;;;0.98;0.88;;;;;;;16.82;31.27;95645.00;5024360;28;20029;-72
2022/01/02 10:18:53;;;;;;;0.60;0.60;;;;;;;17.07;30.60;95627.03;5022234;28;20365;-70
2022/01/02 10:21:29;;;;;;;1.13;0.60;;;;;;;17.57;29.92;95652.09;5031854;28;20087;-70
2022/01/02 10:24:13;;;;;;;0.63;0.63;;;;;;;17.88;29.75;95646.94;5033036;28;20034;-70
2022/01/02 10:26:40;;;;;;;1.73;0.80;;;;;;;17.87;28.69;95648.06;5031677;28;20084;-66
2022/01/02 10:29:13;;;;;;;0.77;0.55;;;;;;;17.65;28.59;95646.56;5031049;28;20072;-69
2022/01/02 10:31:39;;;;;;;0.65;0.63;;;;;;;17.28;28.68;95575.09;5026817;28;20037;-66
2022/01/02 10:34:05;;;;;;;0.50;0.47;;;;;;;18.00;28.52;95648.03;5005649;28;20048;-66
2022/01/02 10:36:31;;;;;;;1.10;0.82;;;;;;;18.09;28.38;95644.13;5033269;28;20570;-66
2022/01/02 10:39:00;;;;;;;1.30;0.85;;;;;;;18.10;28.33;95640.28;5031312;28;20087;-66
2022/01/02 10:41:34;;;;;;;0.70;0.68;;;;;;;17.82;27.97;95612.53;5014390;28;20060;-65
2022/01/02 10:44:26;;;;;;;0.60;0.60;;;;;;;17.64;28.36;95636.94;5031809;28;20526;-66
2022/01/02 10:47:05;;;;;;;1.27;0.60;;;;;;;17.51;28.38;95638.06;5028466;28;20030;-68
2022/01/02 10:49:49;;;;;;;0.55;0.43;;;;;;;18.04;28.16;95632.78;5015054;28;20033;-68
2022/01/02 10:52:24;;;;;;;1.10;0.75;;;;;;;17.27;27.90;95590.44;4992206;28;20636;-67
2022/01/02 10:54:51;;;;;;;2.55;0.60;;;;;;;16.97;27.92;95571.03;4974933;28;20030;-67
2022/01/02 10:57:16;;;;;;;0.75;0.60;;;;;;;17.52;27.17;95641.53;4992195;28;20157;-68
2022/01/02 10:59:44;;;;;;;0.60;0.60;;;;;;;17.87;26.92;95628.44;4992802;28;20113;-67
2022/01/02 11:02:12;;;;;;;1.70;0.60;;;;;;;17.43;26.77;95579.78;5003457;28;20024;-68
2022/01/02 11:04:47;;;;;;;0.40;0.40;;;;;;;17.79;26.53;95605.91;5023320;28;20030;-68
2022/01/02 11:07:21;;;;;;;0.50;0.50;;;;;;;18.03;26.37;95561.25;4992540;28;20033;-66
2022/01/02 11:09:48;;;;;;;0.68;0.57;;;;;;;18.38;25.77;95583.78;4991360;28;20018;-71
2022/01/02 11:12:15;;;;;;;0.60;0.50;;;;;;;18.19;26.44;95626.72;4974407;28;20038;-70
2022/01/02 11:14:41;;;;;;;0.73;0.73;;;;;;;18.34;25.84;95590.97;4974278;28;20054;-69
2022/01/02 11:17:07;;;;;;;0.47;0.47;;;;;;;18.17;26.43;95557.06;5015406;28;20426;-69
2022/01/02 11:19:32;;;;;;;0.80;0.80;;;;;;;18.24;25.69;95561.06;5021507;28;20030;-69
2022/01/02 11:22:03;;;;;;;0.93;0.57;;;;;;;18.51;26.01;95570.25;5030133;28;20074;-68
2022/01/02 11:24:34;;;;;;;0.73;0.60;;;;;;;18.37;25.93;95547.19;5013372;28;20038;-68
2022/01/02 11:27:15;;;;;;;0.38;0.38;;;;;;;18.78;26.18;95612.59;5013250;28;20017;-69
2022/01/02 11:29:40;;;;;;;0.65;0.60;;;;;;;18.41;26.22;95604.63;5030090;28;20026;-68
2022/01/02 11:32:26;;;;;;;0.77;0.68;;;;;;;18.48;26.03;95577.13;5014392;28;20036;-69
2022/01/02 11:34:53;;;;;;;1.95;0.68;;;;;;;18.49;26.18;95602.16;5021268;28;20049;-69
2022/01/02 11:37:22;;;;;;;0.75;0.50;;;;;;;18.90;25.87;95598.28;5030584;28;20103;-70
2022/01/02 11:39:59;;;;;;;0.40;0.40;;;;;;;18.70;25.64;95544.25;5030026;28;20021;-70
2022/01/02 11:42:35;;;;;;;1.88;0.50;;;;;;;19.16;25.02;95597.78;5012987;28;20403;-69
2022/01/02 11:45:04;;;;;;;0.75;0.55;;;;;;;19.30;25.01;95597.38;5028171;28;20037;-70
2022/01/02 11:47:40;;;;;;;0.70;0.70;;;;;;;19.49;24.88;95590.09;5024396;28;20021;-70